CYSF

Stony Rapids Airport

Stony Rapids, Saskatchewan, Canada
METAR CYSF 151200Z AUTO 07007KT 9SM FEW130 M21/M25 A3028 RMK SLP285
Observed Flight Rules
Nov-15 @ 12:00 UTC (51 minutes ago) Visual Flight Rules
Wind Visibility Clouds
70° at 7 knots 9 miles
  • Few at 13,000' AGL
Temperatures Readings
Current -21°C / -6°F
Dewpoint -25°C / -13°F
Humidity 70%
Altimeter 30.28" Hg
Pressure 1028.5 hPa
Elevation 250
METAR CYSF 151200Z AUTO 07007KT 9SM FEW130 M21/M25 A3028 RMK SLP285
Observed Flight Rules
Nov-15 @ 12:00 UTC
(51 minutes ago)
VFR
Wind Visibility
70° at 7 knots 9 miles
Clouds
  • Few at 13,000' AGL
Temperature Dewpoint
-21°C / -6°F -25°C / -13°F
Humidity Altimeter Pressure
70% 30.28" Hg 1028.5 hPa